sensor_id;sensor_type;location;lat;lon;timestamp;pressure;altitude;pressure_sealevel;temperature;humidity
62725;BME280;49026;52.600;4.694;2023-06-14T00:02:07;101637.50;;;17.63;46.35
62725;BME280;49026;52.600;4.694;2023-06-14T00:04:34;101631.69;;;17.56;47.83
62725;BME280;49026;52.600;4.694;2023-06-14T00:07:00;101632.03;;;17.50;46.79
62725;BME280;49026;52.600;4.694;2023-06-14T00:09:25;101626.88;;;17.47;47.21
62725;BME280;49026;52.600;4.694;2023-06-14T00:11:50;101628.09;;;17.41;47.54
62725;BME280;49026;52.600;4.694;2023-06-14T00:14:16;101625.53;;;17.40;47.33
62725;BME280;49026;52.600;4.694;2023-06-14T00:16:41;101631.00;;;17.37;48.12
62725;BME280;49026;52.600;4.694;2023-06-14T00:19:08;101634.56;;;17.37;48.32
62725;BME280;49026;52.600;4.694;2023-06-14T00:21:37;101636.16;;;17.40;48.78
62725;BME280;49026;52.600;4.694;2023-06-14T00:24:03;101628.28;;;17.38;47.54
62725;BME280;49026;52.600;4.694;2023-06-14T00:26:29;101627.75;;;17.32;48.17
62725;BME280;49026;52.600;4.694;2023-06-14T00:28:55;101628.00;;;17.27;48.52
62725;BME280;49026;52.600;4.694;2023-06-14T00:31:24;101627.25;;;17.25;47.11
62725;BME280;49026;52.600;4.694;2023-06-14T00:33:49;101631.97;;;17.20;48.26
62725;BME280;49026;52.600;4.694;2023-06-14T00:36:17;101629.63;;;17.14;48.63
62725;BME280;49026;52.600;4.694;2023-06-14T00:38:44;101635.22;;;17.09;47.23
62725;BME280;49026;52.600;4.694;2023-06-14T00:41:10;101627.50;;;17.04;47.75
62725;BME280;49026;52.600;4.694;2023-06-14T00:43:35;101634.78;;;17.01;48.33
62725;BME280;49026;52.600;4.694;2023-06-14T00:46:00;101628.78;;;16.97;47.25
62725;BME280;49026;52.600;4.694;2023-06-14T00:48:27;101634.25;;;16.94;47.98
62725;BME280;49026;52.600;4.694;2023-06-14T00:50:52;101631.78;;;16.91;48.31
62725;BME280;49026;52.600;4.694;2023-06-14T00:53:18;101638.00;;;16.90;48.42
62725;BME280;49026;52.600;4.694;2023-06-14T00:55:49;101635.59;;;16.85;48.02
62725;BME280;49026;52.600;4.694;2023-06-14T00:58:17;101634.03;;;16.81;48.78
62725;BME280;49026;52.600;4.694;2023-06-14T01:00:42;101636.84;;;16.78;48.65
62725;BME280;49026;52.600;4.694;2023-06-14T01:03:07;101636.06;;;16.76;47.57
62725;BME280;49026;52.600;4.694;2023-06-14T01:05:37;101632.13;;;16.67;47.78
62725;BME280;49026;52.600;4.694;2023-06-14T01:11:10;101631.81;;;16.56;47.22
62725;BME280;49026;52.600;4.694;2023-06-14T01:13:43;101640.09;;;16.50;47.05
62725;BME280;49026;52.600;4.694;2023-06-14T01:16:13;101641.38;;;16.43;47.68
62725;BME280;49026;52.600;4.694;2023-06-14T01:18:39;101635.44;;;16.38;47.78
62725;BME280;49026;52.600;4.694;2023-06-14T01:21:20;101635.59;;;16.35;46.85
62725;BME280;49026;52.600;4.694;2023-06-14T01:23:47;101633.88;;;16.34;47.16
62725;BME280;49026;52.600;4.694;2023-06-14T01:26:18;101637.63;;;16.29;48.21
62725;BME280;49026;52.600;4.694;2023-06-14T01:28:46;101638.63;;;16.27;47.37
62725;BME280;49026;52.600;4.694;2023-06-14T01:31:17;101631.72;;;16.24;47.10
62725;BME280;49026;52.600;4.694;2023-06-14T01:33:43;101633.81;;;16.18;47.29
62725;BME280;49026;52.600;4.694;2023-06-14T01:36:11;101642.63;;;16.18;46.92
62725;BME280;49026;52.600;4.694;2023-06-14T01:38:38;101635.91;;;16.11;45.94
62725;BME280;49026;52.600;4.694;2023-06-14T01:41:06;101630.84;;;16.06;48.05
62725;BME280;49026;52.600;4.694;2023-06-14T01:43:32;101643.31;;;16.04;47.57
62725;BME280;49026;52.600;4.694;2023-06-14T01:45:59;101635.59;;;16.00;46.77
62725;BME280;49026;52.600;4.694;2023-06-14T01:48:25;101640.19;;;15.96;47.29
62725;BME280;49026;52.600;4.694;2023-06-14T01:50:52;101641.19;;;15.93;47.53
62725;BME280;49026;52.600;4.694;2023-06-14T01:53:19;101640.50;;;15.90;46.49
62725;BME280;49026;52.600;4.694;2023-06-14T01:55:45;101643.47;;;15.84;47.74
62725;BME280;49026;52.600;4.694;2023-06-14T01:58:16;101641.88;;;15.80;47.22
62725;BME280;49026;52.600;4.694;2023-06-14T02:00:41;101644.47;;;15.81;47.11
62725;BME280;49026;52.600;4.694;2023-06-14T02:03:12;101645.56;;;15.77;46.87
62725;BME280;49026;52.600;4.694;2023-06-14T02:05:40;101642.06;;;15.75;46.61
62725;BME280;49026;52.600;4.694;2023-06-14T02:08:08;101641.38;;;15.71;46.42
62725;BME280;49026;52.600;4.694;2023-06-14T02:10:33;101642.41;;;15.69;48.13
62725;BME280;49026;52.600;4.694;2023-06-14T02:13:01;101649.53;;;15.67;46.69
62725;BME280;49026;52.600;4.694;2023-06-14T02:15:28;101644.50;;;15.62;47.54
62725;BME280;49026;52.600;4.694;2023-06-14T02:17:58;101637.59;;;15.58;48.39
62725;BME280;49026;52.600;4.694;2023-06-14T02:20:24;101636.91;;;15.54;48.51
62725;BME280;49026;52.600;4.694;2023-06-14T02:22:51;101629.81;;;15.55;49.56
62725;BME280;49026;52.600;4.694;2023-06-14T02:25:17;101628.97;;;15.54;49.48
62725;BME280;49026;52.600;4.694;2023-06-14T02:27:44;101628.03;;;15.55;48.57
62725;BME280;49026;52.600;4.694;2023-06-14T02:30:10;101634.31;;;15.53;49.20
62725;BME280;49026;52.600;4.694;2023-06-14T02:32:36;101629.09;;;15.51;49.43
62725;BME280;49026;52.600;4.694;2023-06-14T02:35:02;101630.13;;;15.49;49.32
62725;BME280;49026;52.600;4.694;2023-06-14T02:37:27;101635.50;;;15.47;49.90
62725;BME280;49026;52.600;4.694;2023-06-14T02:40:00;101628.47;;;15.46;48.31
62725;BME280;49026;52.600;4.694;2023-06-14T02:42:25;101631.25;;;15.43;48.91
62725;BME280;49026;52.600;4.694;2023-06-14T02:44:58;101631.41;;;15.40;48.12
62725;BME280;49026;52.600;4.694;2023-06-14T02:47:23;101640.44;;;15.36;48.89
62725;BME280;49026;52.600;4.694;2023-06-14T02:49:49;101638.00;;;15.31;48.72
62725;BME280;49026;52.600;4.694;2023-06-14T02:52:15;101644.19;;;15.32;48.42
62725;BME280;49026;52.600;4.694;2023-06-14T02:54:41;101637.16;;;15.31;48.56
62725;BME280;49026;52.600;4.694;2023-06-14T02:57:07;101639.94;;;15.28;47.96
62725;BME280;49026;52.600;4.694;2023-06-14T02:59:33;101639.94;;;15.28;49.48
62725;BME280;49026;52.600;4.694;2023-06-14T03:01:58;101644.47;;;15.26;49.61
62725;BME280;49026;52.600;4.694;2023-06-14T03:04:23;101647.16;;;15.24;48.74
62725;BME280;49026;52.600;4.694;2023-06-14T03:06:51;101644.72;;;15.19;49.09
62725;BME280;49026;52.600;4.694;2023-06-14T03:09:16;101651.03;;;15.17;49.78
62725;BME280;49026;52.600;4.694;2023-06-14T03:11:42;101653.75;;;15.15;49.12
62725;BME280;49026;52.600;4.694;2023-06-14T03:14:07;101651.31;;;15.11;47.94
62725;BME280;49026;52.600;4.694;2023-06-14T03:16:36;101653.25;;;15.07;49.55
62725;BME280;49026;52.600;4.694;2023-06-14T03:19:02;101653.31;;;15.06;49.56
62725;BME280;49026;52.600;4.694;2023-06-14T03:21:27;101658.69;;;15.04;50.35
62725;BME280;49026;52.600;4.694;2023-06-14T03:23:56;101668.34;;;15.05;49.12
62725;BME280;49026;52.600;4.694;2023-06-14T03:26:21;101663.97;;;15.04;50.44
62725;BME280;49026;52.600;4.694;2023-06-14T03:28:47;101669.28;;;15.04;49.93
62725;BME280;49026;52.600;4.694;2023-06-14T03:31:17;101664.81;;;15.05;49.40
62725;BME280;49026;52.600;4.694;2023-06-14T03:33:44;101663.91;;;15.06;49.14
62725;BME280;49026;52.600;4.694;2023-06-14T03:36:16;101666.63;;;15.04;49.07
62725;BME280;49026;52.600;4.694;2023-06-14T03:38:42;101673.66;;;15.05;50.30
62725;BME280;49026;52.600;4.694;2023-06-14T03:41:08;101677.06;;;15.07;51.04
62725;BME280;49026;52.600;4.694;2023-06-14T03:43:33;101678.78;;;15.08;49.12
62725;BME280;49026;52.600;4.694;2023-06-14T03:45:59;101684.06;;;15.08;49.49
62725;BME280;49026;52.600;4.694;2023-06-14T03:48:25;101689.38;;;15.08;50.07
62725;BME280;49026;52.600;4.694;2023-06-14T03:50:51;101686.88;;;15.05;48.95
62725;BME280;49026;52.600;4.694;2023-06-14T03:53:16;101678.78;;;15.08;49.38
62725;BME280;49026;52.600;4.694;2023-06-14T03:55:42;101681.41;;;15.08;51.84
62725;BME280;49026;52.600;4.694;2023-06-14T03:58:07;101687.47;;;15.12;51.18
62725;BME280;49026;52.600;4.694;2023-06-14T04:00:35;101689.88;;;15.16;49.29
62725;BME280;49026;52.600;4.694;2023-06-14T04:03:00;101687.59;;;15.28;50.69
62725;BME280;49026;52.600;4.694;2023-06-14T04:05:28;101698.09;;;15.48;51.35
62725;BME280;49026;52.600;4.694;2023-06-14T04:07:53;101696.09;;;15.72;51.06
62725;BME280;49026;52.600;4.694;2023-06-14T04:10:21;101698.44;;;15.98;51.45
62725;BME280;49026;52.600;4.694;2023-06-14T04:12:46;101699.88;;;16.22;50.66
62725;BME280;49026;52.600;4.694;2023-06-14T04:15:14;101697.00;;;16.44;49.65
62725;BME280;49026;52.600;4.694;2023-06-14T04:17:41;101697.66;;;16.65;49.44
62725;BME280;49026;52.600;4.694;2023-06-14T04:20:09;101705.59;;;16.83;49.66
62725;BME280;49026;52.600;4.694;2023-06-14T04:22:35;101712.63;;;17.01;49.69
62725;BME280;49026;52.600;4.694;2023-06-14T04:25:03;101707.25;;;17.19;49.91
62725;BME280;49026;52.600;4.694;2023-06-14T04:27:31;101702.81;;;17.35;49.12
62725;BME280;49026;52.600;4.694;2023-06-14T04:30:01;101706.25;;;17.53;49.17
62725;BME280;49026;52.600;4.694;2023-06-14T04:32:27;101709.88;;;17.68;49.14
62725;BME280;49026;52.600;4.694;2023-06-14T04:34:55;101709.16;;;17.81;48.94
62725;BME280;49026;52.600;4.694;2023-06-14T04:37:26;101710.03;;;17.97;48.80
62725;BME280;49026;52.600;4.694;2023-06-14T04:39:54;101712.75;;;18.11;48.77
62725;BME280;49026;52.600;4.694;2023-06-14T04:42:21;101711.69;;;18.30;48.17
62725;BME280;49026;52.600;4.694;2023-06-14T04:44:52;101718.16;;;18.40;48.69
62725;BME280;49026;52.600;4.694;2023-06-14T04:47:23;101714.19;;;18.47;48.37
62725;BME280;49026;52.600;4.694;2023-06-14T04:49:57;101709.19;;;18.57;48.29
62725;BME280;49026;52.600;4.694;2023-06-14T04:52:23;101709.41;;;18.68;47.91
62725;BME280;49026;52.600;4.694;2023-06-14T04:54:53;101708.84;;;18.78;47.98
62725;BME280;49026;52.600;4.694;2023-06-14T04:57:21;101712.03;;;18.84;48.07
62725;BME280;49026;52.600;4.694;2023-06-14T04:59:55;101710.97;;;19.01;47.83
62725;BME280;49026;52.600;4.694;2023-06-14T05:02:23;101709.34;;;19.13;47.82
62725;BME280;49026;52.600;4.694;2023-06-14T05:04:49;101715.25;;;19.18;47.69
62725;BME280;49026;52.600;4.694;2023-06-14T05:07:15;101717.72;;;19.21;47.74
62725;BME280;49026;52.600;4.694;2023-06-14T05:09:40;101718.28;;;19.27;47.53
62725;BME280;49026;52.600;4.694;2023-06-14T05:12:08;101713.91;;;19.40;47.23
62725;BME280;49026;52.600;4.694;2023-06-14T05:14:36;101723.38;;;19.58;47.37
62725;BME280;49026;52.600;4.694;2023-06-14T05:17:01;101729.16;;;19.65;47.26
62725;BME280;49026;52.600;4.694;2023-06-14T05:19:28;101727.91;;;19.71;47.12
62725;BME280;49026;52.600;4.694;2023-06-14T05:21:53;101730.78;;;19.82;46.77
62725;BME280;49026;52.600;4.694;2023-06-14T05:24:19;101721.84;;;19.96;46.90
62725;BME280;49026;52.600;4.694;2023-06-14T05:26:49;101726.81;;;20.02;46.57
62725;BME280;49026;52.600;4.694;2023-06-14T05:29:14;101724.59;;;20.09;46.47
62725;BME280;49026;52.600;4.694;2023-06-14T05:31:39;101732.50;;;20.10;46.49
62725;BME280;49026;52.600;4.694;2023-06-14T05:34:05;101735.06;;;20.12;46.51
62725;BME280;49026;52.600;4.694;2023-06-14T05:36:30;101726.22;;;20.11;46.14
62725;BME280;49026;52.600;4.694;2023-06-14T05:38:55;101739.00;;;20.19;46.63
62725;BME280;49026;52.600;4.694;2023-06-14T05:41:26;101725.41;;;20.36;46.08
62725;BME280;49026;52.600;4.694;2023-06-14T05:43:55;101735.13;;;20.38;46.16
62725;BME280;49026;52.600;4.694;2023-06-14T05:46:21;101734.25;;;20.37;46.37
62725;BME280;49026;52.600;4.694;2023-06-14T05:48:49;101741.00;;;20.43;46.20
62725;BME280;49026;52.600;4.694;2023-06-14T05:51:20;101743.78;;;20.54;46.02
62725;BME280;49026;52.600;4.694;2023-06-14T05:53:46;101738.03;;;20.60;46.29
62725;BME280;49026;52.600;4.694;2023-06-14T05:56:12;101739.28;;;20.82;45.92
62725;BME280;49026;52.600;4.694;2023-06-14T05:58:38;101735.19;;;20.89;45.60
62725;BME280;49026;52.600;4.694;2023-06-14T06:01:03;101741.28;;;20.91;45.60
62725;BME280;49026;52.600;4.694;2023-06-14T06:03:28;101732.19;;;21.06;45.37
62725;BME280;49026;52.600;4.694;2023-06-14T06:05:54;101749.84;;;20.96;45.54
62725;BME280;49026;52.600;4.694;2023-06-14T06:08:22;101749.41;;;20.77;45.66
62725;BME280;49026;52.600;4.694;2023-06-14T06:10:47;101750.25;;;20.64;46.47
62725;BME280;49026;52.600;4.694;2023-06-14T06:13:13;101748.09;;;20.57;46.24
62725;BME280;49026;52.600;4.694;2023-06-14T06:15:38;101747.94;;;20.45;46.33
62725;BME280;49026;52.600;4.694;2023-06-14T06:18:03;101746.97;;;20.33;46.70
62725;BME280;49026;52.600;4.694;2023-06-14T06:20:31;101761.66;;;20.26;46.73
62725;BME280;49026;52.600;4.694;2023-06-14T06:23:00;101754.28;;;20.17;46.94
62725;BME280;49026;52.600;4.694;2023-06-14T06:25:26;101749.25;;;20.12;47.44
62725;BME280;49026;52.600;4.694;2023-06-14T06:27:55;101752.94;;;19.97;47.76
62725;BME280;49026;52.600;4.694;2023-06-14T06:30:23;101762.66;;;19.98;47.42
62725;BME280;49026;52.600;4.694;2023-06-14T06:32:48;101761.56;;;20.01;47.87
62725;BME280;49026;52.600;4.694;2023-06-14T06:35:14;101757.78;;;20.05;47.78
62725;BME280;49026;52.600;4.694;2023-06-14T06:37:40;101757.53;;;20.08;48.20
62725;BME280;49026;52.600;4.694;2023-06-14T06:40:06;101759.91;;;20.12;47.81
62725;BME280;49026;52.600;4.694;2023-06-14T06:42:32;101764.47;;;20.25;47.61
62725;BME280;49026;52.600;4.694;2023-06-14T06:44:58;101762.72;;;20.24;48.07
62725;BME280;49026;52.600;4.694;2023-06-14T06:47:23;101765.19;;;20.27;48.00
62725;BME280;49026;52.600;4.694;2023-06-14T06:49:50;101771.28;;;20.29;47.96
62725;BME280;49026;52.600;4.694;2023-06-14T06:52:15;101754.31;;;20.30;48.24
62725;BME280;49026;52.600;4.694;2023-06-14T06:54:40;101776.72;;;20.27;48.73
62725;BME280;49026;52.600;4.694;2023-06-14T06:57:05;101770.09;;;20.33;49.06
62725;BME280;49026;52.600;4.694;2023-06-14T06:59:32;101781.38;;;20.51;48.92
62725;BME280;49026;52.600;4.694;2023-06-14T07:01:58;101778.84;;;20.62;49.01
62725;BME280;49026;52.600;4.694;2023-06-14T07:04:23;101793.13;;;20.61;49.20
62725;BME280;49026;52.600;4.694;2023-06-14T07:06:48;101792.13;;;20.64;49.82
62725;BME280;49026;52.600;4.694;2023-06-14T07:09:14;101794.50;;;20.68;49.26
62725;BME280;49026;52.600;4.694;2023-06-14T07:11:41;101796.63;;;20.76;49.06
62725;BME280;49026;52.600;4.694;2023-06-14T07:14:07;101796.66;;;20.89;49.01
62725;BME280;49026;52.600;4.694;2023-06-14T07:16:32;101799.75;;;20.96;49.00
62725;BME280;49026;52.600;4.694;2023-06-14T07:19:01;101797.53;;;21.15;49.25
62725;BME280;49026;52.600;4.694;2023-06-14T07:21:27;101795.81;;;21.27;49.99
62725;BME280;49026;52.600;4.694;2023-06-14T07:23:53;101802.22;;;21.37;48.99
62725;BME280;49026;52.600;4.694;2023-06-14T07:26:18;101804.56;;;21.42;49.05
62725;BME280;49026;52.600;4.694;2023-06-14T07:28:44;101799.78;;;21.47;48.97
62725;BME280;49026;52.600;4.694;2023-06-14T07:31:14;101804.56;;;21.55;49.17
62725;BME280;49026;52.600;4.694;2023-06-14T07:33:41;101811.41;;;21.59;49.45
62725;BME280;49026;52.600;4.694;2023-06-14T07:36:06;101810.22;;;21.63;49.02
62725;BME280;49026;52.600;4.694;2023-06-14T07:38:32;101816.91;;;21.81;49.37
62725;BME280;49026;52.600;4.694;2023-06-14T07:40:57;101822.22;;;21.94;49.02
62725;BME280;49026;52.600;4.694;2023-06-14T07:43:22;101819.00;;;22.02;48.73
62725;BME280;49026;52.600;4.694;2023-06-14T07:45:48;101813.75;;;22.25;48.90
62725;BME280;49026;52.600;4.694;2023-06-14T07:48:16;101817.81;;;22.54;48.89
62725;BME280;49026;52.600;4.694;2023-06-14T07:50:41;101824.41;;;22.62;48.51
62725;BME280;49026;52.600;4.694;2023-06-14T07:53:07;101814.69;;;22.61;48.36
62725;BME280;49026;52.600;4.694;2023-06-14T07:55:32;101816.38;;;22.62;48.28
62725;BME280;49026;52.600;4.694;2023-06-14T07:57:58;101825.19;;;22.64;47.71
62725;BME280;49026;52.600;4.694;2023-06-14T08:00:24;101816.16;;;22.65;47.06
62725;BME280;49026;52.600;4.694;2023-06-14T08:02:49;101822.50;;;22.75;46.82
62725;BME280;49026;52.600;4.694;2023-06-14T08:05:15;101828.75;;;22.87;46.96
62725;BME280;49026;52.600;4.694;2023-06-14T08:07:41;101832.91;;;22.91;45.92
62725;BME280;49026;52.600;4.694;2023-06-14T08:10:07;101831.66;;;23.08;46.69
62725;BME280;49026;52.600;4.694;2023-06-14T08:12:33;101831.91;;;23.39;47.68
62725;BME280;49026;52.600;4.694;2023-06-14T08:15:01;101833.00;;;23.59;46.36
62725;BME280;49026;52.600;4.694;2023-06-14T08:17:27;101824.34;;;23.55;45.79
62725;BME280;49026;52.600;4.694;2023-06-14T08:19:52;101824.34;;;23.55;45.98
62725;BME280;49026;52.600;4.694;2023-06-14T08:22:24;101832.88;;;23.72;45.79
62725;BME280;49026;52.600;4.694;2023-06-14T08:24:52;101831.44;;;23.90;46.45
62725;BME280;49026;52.600;4.694;2023-06-14T08:27:19;101831.88;;;24.07;45.88
62725;BME280;49026;52.600;4.694;2023-06-14T08:29:44;101839.09;;;24.06;44.93
62725;BME280;49026;52.600;4.694;2023-06-14T08:32:12;101833.00;;;24.04;44.81
62725;BME280;49026;52.600;4.694;2023-06-14T08:34:37;101835.88;;;24.12;44.99
62725;BME280;49026;52.600;4.694;2023-06-14T08:37:05;101842.59;;;24.18;44.94
62725;BME280;49026;52.600;4.694;2023-06-14T08:39:31;101839.69;;;24.21;44.98
62725;BME280;49026;52.600;4.694;2023-06-14T08:41:57;101839.44;;;24.24;44.52
62725;BME280;49026;52.600;4.694;2023-06-14T08:44:25;101840.63;;;24.31;44.07
62725;BME280;49026;52.600;4.694;2023-06-14T08:46:50;101832.00;;;24.16;43.59
62725;BME280;49026;52.600;4.694;2023-06-14T08:49:17;101833.63;;;24.40;44.87
62725;BME280;49026;52.600;4.694;2023-06-14T08:51:43;101829.03;;;24.63;43.88
62725;BME280;49026;52.600;4.694;2023-06-14T08:54:10;101836.63;;;24.58;43.09
62725;BME280;49026;52.600;4.694;2023-06-14T08:56:40;101819.72;;;24.67;43.83
62725;BME280;49026;52.600;4.694;2023-06-14T08:59:07;101833.03;;;24.69;41.64
62725;BME280;49026;52.600;4.694;2023-06-14T09:01:34;101833.81;;;24.81;43.30
62725;BME280;49026;52.600;4.694;2023-06-14T09:04:00;101831.41;;;24.77;42.44
62725;BME280;49026;52.600;4.694;2023-06-14T09:06:25;101837.38;;;24.81;42.54
62725;BME280;49026;52.600;4.694;2023-06-14T09:08:54;101833.19;;;24.88;42.01
62725;BME280;49026;52.600;4.694;2023-06-14T09:11:21;101845.75;;;25.09;41.85
62725;BME280;49026;52.600;4.694;2023-06-14T09:13:48;101842.81;;;25.33;41.46
62725;BME280;49026;52.600;4.694;2023-06-14T09:16:13;101838.00;;;25.37;41.15
62725;BME280;49026;52.600;4.694;2023-06-14T09:18:41;101834.94;;;25.41;41.52
62725;BME280;49026;52.600;4.694;2023-06-14T09:21:08;101834.75;;;25.33;40.14
62725;BME280;49026;52.600;4.694;2023-06-14T09:23:38;101842.94;;;25.31;37.77
62725;BME280;49026;52.600;4.694;2023-06-14T09:26:08;101840.31;;;25.41;40.42
62725;BME280;49026;52.600;4.694;2023-06-14T09:28:35;101839.09;;;25.55;40.13
62725;BME280;49026;52.600;4.694;2023-06-14T09:31:01;101839.03;;;25.76;40.01
62725;BME280;49026;52.600;4.694;2023-06-14T09:33:30;101846.97;;;25.87;38.88
62725;BME280;49026;52.600;4.694;2023-06-14T09:35:58;101837.59;;;25.72;39.53
62725;BME280;49026;52.600;4.694;2023-06-14T09:38:24;101841.16;;;25.82;40.41
62725;BME280;49026;52.600;4.694;2023-06-14T09:40:50;101853.81;;;25.92;39.46
62725;BME280;49026;52.600;4.694;2023-06-14T09:43:16;101842.81;;;26.14;40.59
62725;BME280;49026;52.600;4.694;2023-06-14T09:45:46;101840.13;;;26.24;38.85
62725;BME280;49026;52.600;4.694;2023-06-14T09:48:13;101840.28;;;26.32;39.53
62725;BME280;49026;52.600;4.694;2023-06-14T09:50:44;101846.78;;;26.10;33.30
62725;BME280;49026;52.600;4.694;2023-06-14T09:53:11;101842.00;;;26.23;39.63
62725;BME280;49026;52.600;4.694;2023-06-14T09:55:37;101854.75;;;26.41;39.53
62725;BME280;49026;52.600;4.694;2023-06-14T09:58:07;101859.50;;;26.68;39.88
62725;BME280;49026;52.600;4.694;2023-06-14T10:00:33;101848.66;;;26.78;39.32
62725;BME280;49026;52.600;4.694;2023-06-14T10:03:27;101873.66;;;26.80;34.61
62725;BME280;49026;52.600;4.694;2023-06-14T10:05:55;101846.53;;;26.52;31.61
62725;BME280;49026;52.600;4.694;2023-06-14T10:08:25;101842.28;;;26.30;36.17
62725;BME280;49026;52.600;4.694;2023-06-14T10:10:53;101862.97;;;26.39;37.66
62725;BME280;49026;52.600;4.694;2023-06-14T10:13:18;101862.13;;;26.39;36.90
62725;BME280;49026;52.600;4.694;2023-06-14T10:18:43;101850.50;;;26.29;37.29
62725;BME280;49026;52.600;4.694;2023-06-14T10:21:18;101859.88;;;26.44;37.15
62725;BME280;49026;52.600;4.694;2023-06-14T10:23:47;101861.72;;;26.43;36.69
62725;BME280;49026;52.600;4.694;2023-06-14T10:26:23;101862.13;;;26.29;36.35
62725;BME280;49026;52.600;4.694;2023-06-14T10:29:07;101864.50;;;26.22;34.07
62725;BME280;49026;52.600;4.694;2023-06-14T10:34:08;101845.88;;;26.70;37.19
62725;BME280;49026;52.600;4.694;2023-06-14T10:36:34;101844.84;;;26.71;36.24
62725;BME280;49026;52.600;4.694;2023-06-14T10:39:10;101857.50;;;26.80;34.79
62725;BME280;49026;52.600;4.694;2023-06-14T10:41:40;101868.69;;;26.85;36.00
62725;BME280;49026;52.600;4.694;2023-06-14T10:46:46;101866.41;;;26.80;36.33
62725;BME280;49026;52.600;4.694;2023-06-14T10:49:17;101865.84;;;26.67;35.44
62725;BME280;49026;52.600;4.694;2023-06-14T10:51:50;101867.53;;;26.58;35.12
62725;BME280;49026;52.600;4.694;2023-06-14T10:54:16;101858.75;;;26.86;36.12
62725;BME280;49026;52.600;4.694;2023-06-14T10:56:49;101865.78;;;27.16;35.85
62725;BME280;49026;52.600;4.694;2023-06-14T10:59:15;101863.47;;;27.41;35.88
62725;BME280;49026;52.600;4.694;2023-06-14T11:07:43;101872.22;;;26.95;31.68
62725;BME280;49026;52.600;4.694;2023-06-14T11:12:54;101870.97;;;26.90;34.39
62725;BME280;49026;52.600;4.694;2023-06-14T11:15:19;101883.72;;;26.97;34.08
62725;BME280;49026;52.600;4.694;2023-06-14T11:17:55;101868.97;;;26.82;28.42
62725;BME280;49026;52.600;4.694;2023-06-14T11:20:24;101872.94;;;26.88;34.56
62725;BME280;49026;52.600;4.694;2023-06-14T11:22:51;101857.31;;;26.91;33.08
62725;BME280;49026;52.600;4.694;2023-06-14T11:25:17;101856.59;;;26.99;34.09
62725;BME280;49026;52.600;4.694;2023-06-14T11:27:45;101857.28;;;27.30;33.62
62725;BME280;49026;52.600;4.694;2023-06-14T11:30:13;101855.09;;;27.71;34.76
62725;BME280;49026;52.600;4.694;2023-06-14T11:32:39;101852.91;;;28.13;33.92
62725;BME280;49026;52.600;4.694;2023-06-14T11:35:05;101852.31;;;28.19;34.13
62725;BME280;49026;52.600;4.694;2023-06-14T11:37:31;101829.13;;;28.16;33.16
62725;BME280;49026;52.600;4.694;2023-06-14T11:40:01;101841.66;;;27.89;32.97
62725;BME280;49026;52.600;4.694;2023-06-14T11:42:27;101850.66;;;27.80;32.48
62725;BME280;49026;52.600;4.694;2023-06-14T11:44:53;101840.31;;;27.76;32.96
62725;BME280;49026;52.600;4.694;2023-06-14T11:47:22;101842.81;;;27.87;32.84
62725;BME280;49026;52.600;4.694;2023-06-14T11:49:49;101837.81;;;27.64;32.66
62725;BME280;49026;52.600;4.694;2023-06-14T11:52:15;101844.44;;;27.42;32.58
62725;BME280;49026;52.600;4.694;2023-06-14T11:54:42;101846.41;;;27.50;33.97
62725;BME280;49026;52.600;4.694;2023-06-14T11:57:10;101840.34;;;27.66;33.25
62725;BME280;49026;52.600;4.694;2023-06-14T11:59:39;101836.91;;;27.73;30.51
62725;BME280;49026;52.600;4.694;2023-06-14T12:02:09;101842.28;;;27.83;33.18
62725;BME280;49026;52.600;4.694;2023-06-14T12:04:40;101847.84;;;28.00;32.14
62725;BME280;49026;52.600;4.694;2023-06-14T12:07:13;101835.38;;;27.99;30.17
62725;BME280;49026;52.600;4.694;2023-06-14T12:12:28;101846.88;;;28.55;30.18
62725;BME280;49026;52.600;4.694;2023-06-14T12:14:57;101834.69;;;28.15;30.88
62725;BME280;49026;52.600;4.694;2023-06-14T12:17:25;101834.72;;;27.87;31.87
62725;BME280;49026;52.600;4.694;2023-06-14T12:19:50;101838.78;;;27.91;31.75
62725;BME280;49026;52.600;4.694;2023-06-14T12:22:16;101830.84;;;27.89;31.94
62725;BME280;49026;52.600;4.694;2023-06-14T12:24:45;101842.34;;;28.19;32.13
62725;BME280;49026;52.600;4.694;2023-06-14T12:27:12;101846.66;;;28.12;31.42
62725;BME280;49026;52.600;4.694;2023-06-14T12:29:41;101841.31;;;28.02;31.83
62725;BME280;49026;52.600;4.694;2023-06-14T12:32:09;101840.88;;;28.07;31.99
62725;BME280;49026;52.600;4.694;2023-06-14T12:34:34;101835.31;;;28.44;28.21
62725;BME280;49026;52.600;4.694;2023-06-14T12:37:03;101845.59;;;28.41;31.21
62725;BME280;49026;52.600;4.694;2023-06-14T12:39:29;101841.91;;;28.42;31.30
62725;BME280;49026;52.600;4.694;2023-06-14T12:41:58;101841.88;;;28.60;31.51
62725;BME280;49026;52.600;4.694;2023-06-14T12:44:24;101836.06;;;28.91;31.45
62725;BME280;49026;52.600;4.694;2023-06-14T12:46:49;101834.94;;;28.75;30.61
62725;BME280;49026;52.600;4.694;2023-06-14T12:49:17;101841.41;;;28.46;30.11
62725;BME280;49026;52.600;4.694;2023-06-14T12:51:42;101841.03;;;28.41;31.00
62725;BME280;49026;52.600;4.694;2023-06-14T12:54:11;101835.31;;;28.26;29.82
62725;BME280;49026;52.600;4.694;2023-06-14T12:56:37;101838.09;;;28.17;30.13
62725;BME280;49026;52.600;4.694;2023-06-14T12:59:02;101846.44;;;28.41;30.75
62725;BME280;49026;52.600;4.694;2023-06-14T13:01:28;101831.69;;;28.72;30.10
62725;BME280;49026;52.600;4.694;2023-06-14T13:03:55;101836.22;;;28.89;27.88
62725;BME280;49026;52.600;4.694;2023-06-14T13:06:21;101828.56;;;28.85;29.87
62725;BME280;49026;52.600;4.694;2023-06-14T13:08:50;101837.38;;;28.87;30.21
62725;BME280;49026;52.600;4.694;2023-06-14T13:11:15;101837.94;;;28.90;29.84
62725;BME280;49026;52.600;4.694;2023-06-14T13:13:44;101836.56;;;28.68;29.25